Terminal Aerodrome Forecast
Issued by NWS

Home | Current Version | Previous Version | Text Only | Print | Product List | Glossary On
Versions: 1 2 3 4 5 6 7 8 9 10 11 12 13 14 15
000
FTUS45 KCYS 241100
TAFRWL
TAF
KRWL 241120Z 2412/2512 25016G28KT P6SM SKC
     FM241800 25023G35KT P6SM SKC
     FM250000 26018KT P6SM BKN120
     FM250400 24010KT P6SM SCT120=

USA.gov is the U.S. government's official web portal to all federal, state and local government web resources and services.